sensor_id;sensor_type;location;lat;lon;timestamp;pressure;altitude;pressure_sealevel;temperature;humidity
75543;BME280;64129;53.508;10.476;2023-03-16T00:00:50;101552.19;;;0.50;75.62
75543;BME280;64129;53.508;10.476;2023-03-16T00:03:17;101545.00;;;0.43;75.84
75543;BME280;64129;53.508;10.476;2023-03-16T00:05:51;101550.16;;;0.40;75.85
75543;BME280;64129;53.508;10.476;2023-03-16T00:08:18;101545.19;;;0.49;75.75
75543;BME280;64129;53.508;10.476;2023-03-16T00:10:45;101549.31;;;0.41;75.75
75543;BME280;64129;53.508;10.476;2023-03-16T00:13:14;101544.25;;;0.47;75.80
75543;BME280;64129;53.508;10.476;2023-03-16T00:15:47;101552.91;;;0.44;76.22
75543;BME280;64129;53.508;10.476;2023-03-16T00:18:15;101557.22;;;0.44;75.79
75543;BME280;64129;53.508;10.476;2023-03-16T00:20:42;101560.59;;;0.40;75.99
75543;BME280;64129;53.508;10.476;2023-03-16T00:23:08;101555.28;;;0.37;76.63
75543;BME280;64129;53.508;10.476;2023-03-16T00:25:35;101555.16;;;0.34;76.93
75543;BME280;64129;53.508;10.476;2023-03-16T00:28:01;101555.56;;;0.46;76.52
75543;BME280;64129;53.508;10.476;2023-03-16T00:30:29;101558.03;;;0.41;76.19
75543;BME280;64129;53.508;10.476;2023-03-16T00:32:58;101557.06;;;0.38;76.31
75543;BME280;64129;53.508;10.476;2023-03-16T00:35:24;101559.53;;;0.35;76.41
75543;BME280;64129;53.508;10.476;2023-03-16T00:37:51;101561.47;;;0.40;76.34
75543;BME280;64129;53.508;10.476;2023-03-16T00:40:17;101565.81;;;0.40;76.40
75543;BME280;64129;53.508;10.476;2023-03-16T00:42:44;101568.22;;;0.34;76.70
75543;BME280;64129;53.508;10.476;2023-03-16T00:45:10;101565.59;;;0.34;77.21
75543;BME280;64129;53.508;10.476;2023-03-16T00:47:37;101568.22;;;0.34;77.01
75543;BME280;64129;53.508;10.476;2023-03-16T00:50:04;101573.34;;;0.30;77.28
75543;BME280;64129;53.508;10.476;2023-03-16T00:52:30;101559.41;;;0.30;76.66
75543;BME280;64129;53.508;10.476;2023-03-16T00:54:57;101567.19;;;0.28;76.79
75543;BME280;64129;53.508;10.476;2023-03-16T00:57:25;101574.97;;;0.27;76.51
75543;BME280;64129;53.508;10.476;2023-03-16T00:59:53;101568.72;;;0.22;76.66
75543;BME280;64129;53.508;10.476;2023-03-16T01:02:20;101565.84;;;0.13;76.62
75543;BME280;64129;53.508;10.476;2023-03-16T01:04:50;101577.16;;;0.13;76.95
75543;BME280;64129;53.508;10.476;2023-03-16T01:07:17;101573.91;;;0.20;76.50
75543;BME280;64129;53.508;10.476;2023-03-16T01:09:44;101564.84;;;0.09;78.14
75543;BME280;64129;53.508;10.476;2023-03-16T01:12:13;101572.53;;;0.05;77.43
75543;BME280;64129;53.508;10.476;2023-03-16T01:14:40;101564.94;;;0.12;77.05
75543;BME280;64129;53.508;10.476;2023-03-16T01:17:08;101569.28;;;0.12;76.67
75543;BME280;64129;53.508;10.476;2023-03-16T01:19:36;101563.22;;;0.13;76.68
75543;BME280;64129;53.508;10.476;2023-03-16T01:22:07;101563.28;;;0.14;76.40
75543;BME280;64129;53.508;10.476;2023-03-16T01:24:37;101561.69;;;0.19;76.39
75543;BME280;64129;53.508;10.476;2023-03-16T01:27:06;101565.03;;;0.15;76.55
75543;BME280;64129;53.508;10.476;2023-03-16T01:29:34;101564.84;;;0.09;76.86
75543;BME280;64129;53.508;10.476;2023-03-16T01:32:00;101564.72;;;0.05;76.72
75543;BME280;64129;53.508;10.476;2023-03-16T01:34:27;101562.09;;;0.05;76.87
75543;BME280;64129;53.508;10.476;2023-03-16T01:36:54;101561.00;;;-0.02;77.19
75543;BME280;64129;53.508;10.476;2023-03-16T01:39:26;101560.78;;;-0.08;76.96
75543;BME280;64129;53.508;10.476;2023-03-16T01:41:52;101559.94;;;-0.07;77.51
75543;BME280;64129;53.508;10.476;2023-03-16T01:44:22;101546.91;;;-0.07;77.48
75543;BME280;64129;53.508;10.476;2023-03-16T01:46:49;101546.09;;;-0.05;76.72
75543;BME280;64129;53.508;10.476;2023-03-16T01:49:18;101548.56;;;-0.09;76.95
75543;BME280;64129;53.508;10.476;2023-03-16T01:52:02;101544.25;;;-0.09;76.90
75543;BME280;64129;53.508;10.476;2023-03-16T01:54:38;101550.31;;;-0.10;77.09
75543;BME280;64129;53.508;10.476;2023-03-16T01:57:09;101544.94;;;-0.14;77.41
75543;BME280;64129;53.508;10.476;2023-03-16T01:59:47;101555.19;;;-0.20;77.33
75543;BME280;64129;53.508;10.476;2023-03-16T02:02:26;101550.44;;;-0.05;77.32
75543;BME280;64129;53.508;10.476;2023-03-16T02:05:02;101546.59;;;-0.16;77.15
75543;BME280;64129;53.508;10.476;2023-03-16T02:07:35;101549.97;;;-0.20;76.86
75543;BME280;64129;53.508;10.476;2023-03-16T02:10:05;101555.19;;;-0.20;77.53
75543;BME280;64129;53.508;10.476;2023-03-16T02:12:32;101560.31;;;-0.23;77.16
75543;BME280;64129;53.508;10.476;2023-03-16T02:15:02;101558.63;;;-0.21;77.39
75543;BME280;64129;53.508;10.476;2023-03-16T02:17:30;101557.69;;;-0.23;77.52
75543;BME280;64129;53.508;10.476;2023-03-16T02:22:57;101549.75;;;-0.26;76.78
75543;BME280;64129;53.508;10.476;2023-03-16T02:25:28;101551.44;;;-0.28;76.91
75543;BME280;64129;53.508;10.476;2023-03-16T02:28:06;101551.25;;;-0.35;76.96
75543;BME280;64129;53.508;10.476;2023-03-16T02:30:40;101544.22;;;-0.36;76.89
75543;BME280;64129;53.508;10.476;2023-03-16T02:33:07;101555.34;;;-0.41;77.15
75543;BME280;64129;53.508;10.476;2023-03-16T02:35:34;101553.41;;;-0.47;77.11
75543;BME280;64129;53.508;10.476;2023-03-16T02:38:01;101543.81;;;-0.48;76.95
75543;BME280;64129;53.508;10.476;2023-03-16T02:40:34;101541.25;;;-0.46;77.29
75543;BME280;64129;53.508;10.476;2023-03-16T02:43:27;101537.72;;;-0.48;76.84
75543;BME280;64129;53.508;10.476;2023-03-16T02:46:05;101546.47;;;-0.46;76.92
75543;BME280;64129;53.508;10.476;2023-03-16T02:48:39;101542.78;;;-0.53;77.03
75543;BME280;64129;53.508;10.476;2023-03-16T02:51:10;101538.38;;;-0.54;76.68
75543;BME280;64129;53.508;10.476;2023-03-16T02:53:37;101544.44;;;-0.55;76.46
75543;BME280;64129;53.508;10.476;2023-03-16T02:56:04;101540.06;;;-0.56;76.74
75543;BME280;64129;53.508;10.476;2023-03-16T02:58:33;101541.00;;;-0.54;76.52
75543;BME280;64129;53.508;10.476;2023-03-16T03:01:03;101534.09;;;-0.52;76.81
75543;BME280;64129;53.508;10.476;2023-03-16T03:03:31;101530.47;;;-0.57;76.39
75543;BME280;64129;53.508;10.476;2023-03-16T03:06:00;101527.84;;;-0.57;76.53
75543;BME280;64129;53.508;10.476;2023-03-16T03:08:31;101541.63;;;-0.61;76.37
75543;BME280;64129;53.508;10.476;2023-03-16T03:10:58;101541.63;;;-0.61;76.63
75543;BME280;64129;53.508;10.476;2023-03-16T03:13:25;101539.03;;;-0.61;77.08
75543;BME280;64129;53.508;10.476;2023-03-16T03:15:51;101543.31;;;-0.63;77.07
75543;BME280;64129;53.508;10.476;2023-03-16T03:18:21;101540.41;;;-0.71;77.37
75543;BME280;64129;53.508;10.476;2023-03-16T03:20:51;101539.66;;;-0.68;77.22
75543;BME280;64129;53.508;10.476;2023-03-16T03:23:18;101538.69;;;-0.70;76.90
75543;BME280;64129;53.508;10.476;2023-03-16T03:25:44;101553.38;;;-0.72;77.03
75543;BME280;64129;53.508;10.476;2023-03-16T03:28:12;101550.78;;;-0.72;77.27
75543;BME280;64129;53.508;10.476;2023-03-16T03:30:38;101551.91;;;-0.66;77.10
75543;BME280;64129;53.508;10.476;2023-03-16T03:33:05;101557.28;;;-0.61;76.75
75543;BME280;64129;53.508;10.476;2023-03-16T03:35:32;101554.41;;;-0.69;77.14
75543;BME280;64129;53.508;10.476;2023-03-16T03:37:59;101547.47;;;-0.68;77.35
75543;BME280;64129;53.508;10.476;2023-03-16T03:40:26;101541.53;;;-0.64;77.21
75543;BME280;64129;53.508;10.476;2023-03-16T03:42:59;101537.78;;;-0.71;77.17
75543;BME280;64129;53.508;10.476;2023-03-16T03:45:28;101540.53;;;-0.68;77.47
75543;BME280;64129;53.508;10.476;2023-03-16T03:47:54;101552.69;;;-0.68;77.04
75543;BME280;64129;53.508;10.476;2023-03-16T03:50:22;101557.66;;;-0.74;77.39
75543;BME280;64129;53.508;10.476;2023-03-16T03:52:56;101558.59;;;-0.72;77.07
75543;BME280;64129;53.508;10.476;2023-03-16T03:55:23;101565.59;;;-0.71;77.04
75543;BME280;64129;53.508;10.476;2023-03-16T03:57:49;101563.66;;;-0.77;77.23
75543;BME280;64129;53.508;10.476;2023-03-16T04:00:16;101567.38;;;-0.70;77.05
75543;BME280;64129;53.508;10.476;2023-03-16T04:02:47;101556.13;;;-0.69;76.96
75543;BME280;64129;53.508;10.476;2023-03-16T04:05:30;101558.78;;;-0.68;77.04
75543;BME280;64129;53.508;10.476;2023-03-16T04:07:57;101554.28;;;-0.72;77.10
75543;BME280;64129;53.508;10.476;2023-03-16T04:10:26;101549.72;;;-0.77;76.69
75543;BME280;64129;53.508;10.476;2023-03-16T04:12:58;101554.94;;;-0.77;76.65
75543;BME280;64129;53.508;10.476;2023-03-16T04:15:29;101550.63;;;-0.77;77.14
75543;BME280;64129;53.508;10.476;2023-03-16T04:18:12;101550.63;;;-0.77;76.82
75543;BME280;64129;53.508;10.476;2023-03-16T04:20:40;101556.72;;;-0.76;77.59
75543;BME280;64129;53.508;10.476;2023-03-16T04:23:06;101559.94;;;-0.83;77.33
75543;BME280;64129;53.508;10.476;2023-03-16T04:25:36;101553.47;;;-0.95;77.55
75543;BME280;64129;53.508;10.476;2023-03-16T04:28:04;101563.50;;;-0.81;77.45
75543;BME280;64129;53.508;10.476;2023-03-16T04:30:33;101558.50;;;-0.75;76.99
75543;BME280;64129;53.508;10.476;2023-03-16T04:33:13;101550.56;;;-0.78;77.44
75543;BME280;64129;53.508;10.476;2023-03-16T04:35:40;101558.59;;;-0.72;77.39
75543;BME280;64129;53.508;10.476;2023-03-16T04:38:07;101551.63;;;-0.73;77.68
75543;BME280;64129;53.508;10.476;2023-03-16T04:40:42;101553.63;;;-0.66;77.81
75543;BME280;64129;53.508;10.476;2023-03-16T04:43:14;101555.41;;;-0.65;77.64
75543;BME280;64129;53.508;10.476;2023-03-16T04:45:41;101557.91;;;-0.68;77.85
75543;BME280;64129;53.508;10.476;2023-03-16T04:48:08;101554.56;;;-0.64;77.97
75543;BME280;64129;53.508;10.476;2023-03-16T04:50:36;101553.69;;;-0.65;78.20
75543;BME280;64129;53.508;10.476;2023-03-16T04:53:03;101557.97;;;-0.67;77.54
75543;BME280;64129;53.508;10.476;2023-03-16T04:55:31;101561.56;;;-0.63;77.84
75543;BME280;64129;53.508;10.476;2023-03-16T04:57:57;101552.06;;;-0.61;77.91
75543;BME280;64129;53.508;10.476;2023-03-16T05:00:27;101559.06;;;-0.60;78.25
75543;BME280;64129;53.508;10.476;2023-03-16T05:03:17;101556.25;;;-0.66;78.69
75543;BME280;64129;53.508;10.476;2023-03-16T05:05:45;101553.84;;;-0.60;78.40
75543;BME280;64129;53.508;10.476;2023-03-16T05:08:13;101556.50;;;-0.58;78.51
75543;BME280;64129;53.508;10.476;2023-03-16T05:10:42;101561.88;;;-0.54;78.23
75543;BME280;64129;53.508;10.476;2023-03-16T05:13:10;101560.94;;;-0.56;78.50
75543;BME280;64129;53.508;10.476;2023-03-16T05:15:37;101556.53;;;-0.57;78.61
75543;BME280;64129;53.508;10.476;2023-03-16T05:18:14;101553.84;;;-0.60;78.63
75543;BME280;64129;53.508;10.476;2023-03-16T05:20:41;101552.13;;;-0.59;79.39
75543;BME280;64129;53.508;10.476;2023-03-16T05:23:07;101542.41;;;-0.64;79.38
75543;BME280;64129;53.508;10.476;2023-03-16T05:25:41;101548.00;;;-0.53;79.12
75543;BME280;64129;53.508;10.476;2023-03-16T05:28:09;101553.09;;;-0.56;79.03
75543;BME280;64129;53.508;10.476;2023-03-16T05:30:44;101546.75;;;-0.64;79.18
75543;BME280;64129;53.508;10.476;2023-03-16T05:33:15;101559.25;;;-0.54;79.54
75543;BME280;64129;53.508;10.476;2023-03-16T05:35:46;101543.66;;;-0.52;79.49
75543;BME280;64129;53.508;10.476;2023-03-16T05:38:13;101535.03;;;-0.50;79.49
75543;BME280;64129;53.508;10.476;2023-03-16T05:40:42;101541.84;;;-0.55;79.32
75543;BME280;64129;53.508;10.476;2023-03-16T05:43:16;101543.41;;;-0.60;79.63
75543;BME280;64129;53.508;10.476;2023-03-16T05:45:47;101548.63;;;-0.60;79.80
75543;BME280;64129;53.508;10.476;2023-03-16T05:48:16;101553.31;;;-0.50;79.88
75543;BME280;64129;53.508;10.476;2023-03-16T05:50:47;101555.81;;;-0.53;79.59
75543;BME280;64129;53.508;10.476;2023-03-16T05:53:17;101561.34;;;-0.44;79.53
75543;BME280;64129;53.508;10.476;2023-03-16T05:55:43;101572.66;;;-0.43;79.31
75543;BME280;64129;53.508;10.476;2023-03-16T05:58:13;101573.34;;;-0.49;78.32
75543;BME280;64129;53.508;10.476;2023-03-16T06:00:42;101573.44;;;-0.46;79.43
75543;BME280;64129;53.508;10.476;2023-03-16T06:03:21;101575.31;;;-0.42;78.77
75543;BME280;64129;53.508;10.476;2023-03-16T06:05:49;101573.88;;;-0.34;78.60
75543;BME280;64129;53.508;10.476;2023-03-16T06:08:22;101572.88;;;-0.37;77.87
75543;BME280;64129;53.508;10.476;2023-03-16T06:10:50;101570.78;;;-0.22;78.75
75543;BME280;64129;53.508;10.476;2023-03-16T06:13:17;101580.44;;;-0.19;78.69
75543;BME280;64129;53.508;10.476;2023-03-16T06:15:44;101585.41;;;-0.27;78.82
75543;BME280;64129;53.508;10.476;2023-03-16T06:18:12;101584.13;;;-0.13;78.51
75543;BME280;64129;53.508;10.476;2023-03-16T06:20:38;101587.84;;;-0.06;77.91
75543;BME280;64129;53.508;10.476;2023-03-16T06:23:05;101585.31;;;-0.03;78.70
75543;BME280;64129;53.508;10.476;2023-03-16T06:25:32;101583.53;;;-0.04;78.88
75543;BME280;64129;53.508;10.476;2023-03-16T06:27:58;101583.88;;;0.05;78.45
75543;BME280;64129;53.508;10.476;2023-03-16T06:30:25;101580.53;;;0.09;77.98
75543;BME280;64129;53.508;10.476;2023-03-16T06:32:52;101575.19;;;0.06;77.47
75543;BME280;64129;53.508;10.476;2023-03-16T06:35:18;101568.59;;;0.17;77.99
75543;BME280;64129;53.508;10.476;2023-03-16T06:38:02;101570.31;;;0.17;77.57
75543;BME280;64129;53.508;10.476;2023-03-16T06:40:53;101584.44;;;0.23;76.52
75543;BME280;64129;53.508;10.476;2023-03-16T06:43:20;101574.00;;;0.23;77.75
75543;BME280;64129;53.508;10.476;2023-03-16T06:45:48;101596.25;;;0.38;77.74
75543;BME280;64129;53.508;10.476;2023-03-16T06:48:14;101588.78;;;0.50;77.74
75543;BME280;64129;53.508;10.476;2023-03-16T06:50:44;101582.22;;;0.64;76.67
75543;BME280;64129;53.508;10.476;2023-03-16T06:53:13;101577.75;;;0.60;76.35
75543;BME280;64129;53.508;10.476;2023-03-16T06:55:40;101580.84;;;0.75;76.16
75543;BME280;64129;53.508;10.476;2023-03-16T06:58:06;101586.06;;;0.75;76.31
75543;BME280;64129;53.508;10.476;2023-03-16T07:00:33;101572.94;;;4.77;69.40
75543;BME280;64129;53.508;10.476;2023-03-16T07:03:00;101594.66;;;1.97;72.05
75543;BME280;64129;53.508;10.476;2023-03-16T07:05:28;101595.56;;;1.65;72.96
75543;BME280;64129;53.508;10.476;2023-03-16T07:07:56;101593.63;;;1.58;72.93
75543;BME280;64129;53.508;10.476;2023-03-16T07:10:23;101593.31;;;2.90;71.29
75543;BME280;64129;53.508;10.476;2023-03-16T07:12:50;101590.06;;;5.11;62.98
75543;BME280;64129;53.508;10.476;2023-03-16T07:15:17;101592.94;;;6.16;60.66
75543;BME280;64129;53.508;10.476;2023-03-16T07:17:44;101595.88;;;3.75;62.80
75543;BME280;64129;53.508;10.476;2023-03-16T07:20:11;101589.06;;;2.96;67.69
75543;BME280;64129;53.508;10.476;2023-03-16T07:22:38;101594.97;;;2.45;68.82
75543;BME280;64129;53.508;10.476;2023-03-16T07:25:08;101593.28;;;2.49;68.95
75543;BME280;64129;53.508;10.476;2023-03-16T07:27:40;101592.13;;;2.38;68.39
75543;BME280;64129;53.508;10.476;2023-03-16T07:30:10;101597.53;;;2.44;68.00
75543;BME280;64129;53.508;10.476;2023-03-16T07:32:41;101597.38;;;2.38;68.25
75543;BME280;64129;53.508;10.476;2023-03-16T07:35:09;101598.34;;;2.41;68.17
75543;BME280;64129;53.508;10.476;2023-03-16T07:37:36;101603.38;;;2.32;68.54
75543;BME280;64129;53.508;10.476;2023-03-16T07:40:04;101604.47;;;2.42;69.47
75543;BME280;64129;53.508;10.476;2023-03-16T07:42:35;101604.25;;;3.11;75.27
75543;BME280;64129;53.508;10.476;2023-03-16T07:45:07;101596.13;;;2.99;67.69
75543;BME280;64129;53.508;10.476;2023-03-16T07:47:34;101593.69;;;3.08;68.18
75543;BME280;64129;53.508;10.476;2023-03-16T07:50:10;101600.66;;;3.06;68.16
75543;BME280;64129;53.508;10.476;2023-03-16T07:52:40;101609.44;;;3.08;67.61
75543;BME280;64129;53.508;10.476;2023-03-16T07:55:07;101597.31;;;3.13;67.52
75543;BME280;64129;53.508;10.476;2023-03-16T07:57:33;101601.59;;;3.09;67.31
75543;BME280;64129;53.508;10.476;2023-03-16T08:00:00;101601.59;;;3.09;67.85
75543;BME280;64129;53.508;10.476;2023-03-16T08:02:38;101600.53;;;3.00;66.09
75543;BME280;64129;53.508;10.476;2023-03-16T08:05:07;101595.41;;;3.06;64.36
75543;BME280;64129;53.508;10.476;2023-03-16T08:07:41;101608.88;;;3.23;65.00
75543;BME280;64129;53.508;10.476;2023-03-16T08:10:12;101598.44;;;3.26;65.13
75543;BME280;64129;53.508;10.476;2023-03-16T08:12:44;101607.25;;;3.29;65.84
75543;BME280;64129;53.508;10.476;2023-03-16T08:15:11;101604.63;;;3.29;64.63
75543;BME280;64129;53.508;10.476;2023-03-16T08:17:38;101613.53;;;3.37;65.33
75543;BME280;64129;53.508;10.476;2023-03-16T08:20:10;101618.91;;;3.43;64.37
75543;BME280;64129;53.508;10.476;2023-03-16T08:22:42;101608.72;;;3.59;63.23
75543;BME280;64129;53.508;10.476;2023-03-16T08:25:13;101616.97;;;3.80;65.37
75543;BME280;64129;53.508;10.476;2023-03-16T08:27:50;101613.63;;;3.87;64.29
75543;BME280;64129;53.508;10.476;2023-03-16T08:30:16;101609.47;;;4.01;62.17
75543;BME280;64129;53.508;10.476;2023-03-16T08:32:49;101624.28;;;3.96;60.88
75543;BME280;64129;53.508;10.476;2023-03-16T08:35:16;101612.41;;;4.18;62.56
75543;BME280;64129;53.508;10.476;2023-03-16T08:37:43;101607.41;;;4.36;62.44
75543;BME280;64129;53.508;10.476;2023-03-16T08:40:11;101619.72;;;4.39;60.85
75543;BME280;64129;53.508;10.476;2023-03-16T08:42:46;101612.19;;;4.60;61.82
75543;BME280;64129;53.508;10.476;2023-03-16T08:45:16;101612.13;;;4.57;60.70
75543;BME280;64129;53.508;10.476;2023-03-16T08:47:43;101614.25;;;4.83;64.01
75543;BME280;64129;53.508;10.476;2023-03-16T08:50:12;101617.97;;;4.97;60.07
75543;BME280;64129;53.508;10.476;2023-03-16T08:52:38;101611.28;;;5.23;62.48
75543;BME280;64129;53.508;10.476;2023-03-16T08:55:07;101608.81;;;5.39;59.42
75543;BME280;64129;53.508;10.476;2023-03-16T08:57:36;101611.72;;;5.60;61.95
75543;BME280;64129;53.508;10.476;2023-03-16T09:00:05;101615.19;;;5.56;57.24
75543;BME280;64129;53.508;10.476;2023-03-16T09:02:39;101608.00;;;5.44;57.29
75543;BME280;64129;53.508;10.476;2023-03-16T09:05:11;101607.34;;;5.62;58.25
75543;BME280;64129;53.508;10.476;2023-03-16T09:07:38;101606.44;;;5.60;59.27
75543;BME280;64129;53.508;10.476;2023-03-16T09:10:06;101608.47;;;5.88;58.76
75543;BME280;64129;53.508;10.476;2023-03-16T09:12:36;101613.94;;;6.04;58.33
75543;BME280;64129;53.508;10.476;2023-03-16T09:15:04;101600.69;;;7.33;59.98
75543;BME280;64129;53.508;10.476;2023-03-16T09:17:31;101595.25;;;7.02;58.14
75543;BME280;64129;53.508;10.476;2023-03-16T09:19:58;101592.75;;;7.39;56.03
75543;BME280;64129;53.508;10.476;2023-03-16T09:22:40;101600.72;;;7.53;55.91
75543;BME280;64129;53.508;10.476;2023-03-16T09:25:07;101589.34;;;8.16;52.94
75543;BME280;64129;53.508;10.476;2023-03-16T09:27:36;101586.69;;;7.67;54.04
75543;BME280;64129;53.508;10.476;2023-03-16T09:30:04;101595.44;;;7.51;54.37
75543;BME280;64129;53.508;10.476;2023-03-16T09:32:30;101593.66;;;7.51;51.38
75543;BME280;64129;53.508;10.476;2023-03-16T09:34:59;101591.97;;;7.76;55.60
75543;BME280;64129;53.508;10.476;2023-03-16T09:37:25;101579.66;;;8.01;54.59
75543;BME280;64129;53.508;10.476;2023-03-16T09:39:53;101582.31;;;7.98;50.66
75543;BME280;64129;53.508;10.476;2023-03-16T09:42:37;101580.53;;;8.03;54.30
75543;BME280;64129;53.508;10.476;2023-03-16T09:45:28;101578.78;;;8.10;51.35
75543;BME280;64129;53.508;10.476;2023-03-16T09:48:00;101577.00;;;8.49;55.62
75543;BME280;64129;53.508;10.476;2023-03-16T09:50:32;101573.44;;;8.75;50.81
75543;BME280;64129;53.508;10.476;2023-03-16T09:53:21;101577.84;;;8.66;49.19
75543;BME280;64129;53.508;10.476;2023-03-16T09:56:11;101572.63;;;8.35;45.82
75543;BME280;64129;53.508;10.476;2023-03-16T09:58:39;101576.88;;;8.99;51.89
75543;BME280;64129;53.508;10.476;2023-03-16T10:09:55;101574.09;;;9.31;46.93
75543;BME280;64129;53.508;10.476;2023-03-16T10:12:29;101560.91;;;9.20;42.68
75543;BME280;64129;53.508;10.476;2023-03-16T10:15:04;101568.63;;;9.61;42.87
75543;BME280;64129;53.508;10.476;2023-03-16T10:17:40;101564.97;;;9.81;42.50
75543;BME280;64129;53.508;10.476;2023-03-16T10:20:18;101561.78;;;10.46;39.88
75543;BME280;64129;53.508;10.476;2023-03-16T10:22:48;101559.19;;;10.39;40.33
75543;BME280;64129;53.508;10.476;2023-03-16T10:27:58;101559.16;;;10.45;40.85
75543;BME280;64129;53.508;10.476;2023-03-16T10:30:27;101558.28;;;10.43;40.01
75543;BME280;64129;53.508;10.476;2023-03-16T10:33:01;101552.31;;;10.13;41.15
75543;BME280;64129;53.508;10.476;2023-03-16T10:37:55;101566.06;;;9.48;38.97
75543;BME280;64129;53.508;10.476;2023-03-16T10:40:22;101549.88;;;9.87;40.62
75543;BME280;64129;53.508;10.476;2023-03-16T10:42:49;101551.69;;;9.81;39.23
75543;BME280;64129;53.508;10.476;2023-03-16T10:45:26;101546.97;;;10.22;40.67
75543;BME280;64129;53.508;10.476;2023-03-16T10:48:05;101541.03;;;9.88;35.65
75543;BME280;64129;53.508;10.476;2023-03-16T10:50:32;101539.00;;;10.18;37.64
75543;BME280;64129;53.508;10.476;2023-03-16T10:53:00;101547.19;;;9.92;37.14
75543;BME280;64129;53.508;10.476;2023-03-16T10:55:31;101559.41;;;10.13;35.71
75543;BME280;64129;53.508;10.476;2023-03-16T10:58:07;101531.09;;;10.12;37.21
75543;BME280;64129;53.508;10.476;2023-03-16T11:00:36;101535.19;;;10.49;35.24
75543;BME280;64129;53.508;10.476;2023-03-16T11:05:56;101523.59;;;10.58;37.19
75543;BME280;64129;53.508;10.476;2023-03-16T11:08:24;101522.31;;;10.91;39.32
75543;BME280;64129;53.508;10.476;2023-03-16T11:10:57;101516.19;;;10.84;38.33
75543;BME280;64129;53.508;10.476;2023-03-16T11:13:32;101514.19;;;11.02;38.58
75543;BME280;64129;53.508;10.476;2023-03-16T11:18:55;101498.00;;;10.51;33.25
75543;BME280;64129;53.508;10.476;2023-03-16T11:21:54;101504.03;;;10.63;34.15
75543;BME280;64129;53.508;10.476;2023-03-16T11:24:32;101495.25;;;10.57;35.39
75543;BME280;64129;53.508;10.476;2023-03-16T11:27:01;101491.91;;;10.40;35.17
75543;BME280;64129;53.508;10.476;2023-03-16T11:32:37;101489.25;;;10.43;37.57
75543;BME280;64129;53.508;10.476;2023-03-16T11:40:40;101486.63;;;10.37;35.21
75543;BME280;64129;53.508;10.476;2023-03-16T11:46:26;101461.88;;;11.05;35.33
75543;BME280;64129;53.508;10.476;2023-03-16T11:49:30;101464.25;;;11.25;34.33
75543;BME280;64129;53.508;10.476;2023-03-16T11:54:53;101457.75;;;11.46;33.67
75543;BME280;64129;53.508;10.476;2023-03-16T11:57:42;101457.69;;;10.87;30.98
75543;BME280;64129;53.508;10.476;2023-03-16T12:03:40;101446.03;;;10.98;26.61
75543;BME280;64129;53.508;10.476;2023-03-16T12:06:42;101451.84;;;11.25;29.45
75543;BME280;64129;53.508;10.476;2023-03-16T12:12:16;101423.25;;;10.81;26.04
75543;BME280;64129;53.508;10.476;2023-03-16T12:15:15;101425.84;;;11.43;25.34
75543;BME280;64129;53.508;10.476;2023-03-16T12:17:44;101422.94;;;12.10;24.57
75543;BME280;64129;53.508;10.476;2023-03-16T12:20:24;101424.25;;;12.34;24.52
75543;BME280;64129;53.508;10.476;2023-03-16T12:22:59;101416.69;;;12.11;25.30
75543;BME280;64129;53.508;10.476;2023-03-16T12:25:31;101410.97;;;11.86;25.19
75543;BME280;64129;53.508;10.476;2023-03-16T12:28:01;101411.63;;;12.42;24.66
75543;BME280;64129;53.508;10.476;2023-03-16T12:30:42;101409.38;;;13.06;28.47
75543;BME280;64129;53.508;10.476;2023-03-16T12:33:32;101407.28;;;12.80;23.70
75543;BME280;64129;53.508;10.476;2023-03-16T12:39:05;101401.91;;;13.23;27.43
75543;BME280;64129;53.508;10.476;2023-03-16T12:41:35;101401.69;;;13.32;24.18
75543;BME280;64129;53.508;10.476;2023-03-16T12:44:27;101388.88;;;13.08;25.24
75543;BME280;64129;53.508;10.476;2023-03-16T12:47:31;101392.66;;;13.72;27.22
75543;BME280;64129;53.508;10.476;2023-03-16T12:50:08;101393.66;;;12.94;24.50
75543;BME280;64129;53.508;10.476;2023-03-16T12:52:45;101392.28;;;13.52;24.66
75543;BME280;64129;53.508;10.476;2023-03-16T12:55:19;101379.44;;;12.95;25.67
75543;BME280;64129;53.508;10.476;2023-03-16T12:57:48;101375.84;;;12.12;27.40
75543;BME280;64129;53.508;10.476;2023-03-16T13:00:17;101368.16;;;11.97;29.30
75543;BME280;64129;53.508;10.476;2023-03-16T13:02:49;101359.66;;;11.26;23.53
75543;BME280;64129;53.508;10.476;2023-03-16T13:05:35;101358.25;;;11.56;25.79
75543;BME280;64129;53.508;10.476;2023-03-16T13:08:07;101363.63;;;11.53;28.00
75543;BME280;64129;53.508;10.476;2023-03-16T13:10:36;101358.19;;;11.07;24.37
75543;BME280;64129;53.508;10.476;2023-03-16T13:13:09;101365.53;;;10.89;27.08
75543;BME280;64129;53.508;10.476;2023-03-16T13:15:36;101358.06;;;10.56;24.88
75543;BME280;64129;53.508;10.476;2023-03-16T13:20:51;101346.75;;;11.00;25.80
75543;BME280;64129;53.508;10.476;2023-03-16T13:26:21;101343.75;;;11.23;27.47
75543;BME280;64129;53.508;10.476;2023-03-16T13:28:53;101337.34;;;10.79;26.61
75543;BME280;64129;53.508;10.476;2023-03-16T13:31:24;101341.00;;;11.28;25.54
75543;BME280;64129;53.508;10.476;2023-03-16T13:33:53;101326.66;;;11.87;24.83
75543;BME280;64129;53.508;10.476;2023-03-16T13:36:23;101323.16;;;11.85;24.22
75543;BME280;64129;53.508;10.476;2023-03-16T13:39:02;101303.16;;;12.07;26.66
75543;BME280;64129;53.508;10.476;2023-03-16T13:41:29;101316.16;;;11.30;25.22
75543;BME280;64129;53.508;10.476;2023-03-16T13:43:56;101318.00;;;11.25;26.32
75543;BME280;64129;53.508;10.476;2023-03-16T13:46:27;101314.91;;;10.99;27.21
75543;BME280;64129;53.508;10.476;2023-03-16T13:48:57;101304.81;;;11.20;26.12
75543;BME280;64129;53.508;10.476;2023-03-16T13:51:26;101299.81;;;10.99;27.43
75543;BME280;64129;53.508;10.476;2023-03-16T13:53:56;101304.91;;;11.14;28.52
75543;BME280;64129;53.508;10.476;2023-03-16T13:56:25;101298.41;;;11.77;27.45